Topeka, KS

1:08 PM CDT on September 02, 2014 (GMT -0500)
Elmhurst | Change Station
CLOSE
Current Station
Personal Weather Station
Location: Topeka, KS
Elevation: 953 ft
Nearby Weather Stations

Elev 953 ft 39.05 °N, 95.70 °W | Updated 3 minutes ago

Partly Cloudy
Partly Cloudy
81.8 °F
Feels Like 85 °F
N
3.0
Wind Variable Wind from ESE

Today
High -- | Low -- °F
--% Chance of Precip.
Yesterday
High -- | Low -- °F
Precip. -- in
6:52 AM 7:51 PM
First Quarter, 53% visible
Pressure 30.00 in
Visibility 10.0 miles
Clouds Few 2100 ft
Heat Index 85 °F
Dew Point 70 °F
Humidity 67%
Rainfall 0.02 in
Snow Depth Not available.
UV 9 out of 12
Pollen 10.00 out of 12
Air Quality Not available.
Flu Activity Not available.
METAR KTOP 021753Z 00000KT 10SM FEW021 27/21 A3002 RMK AO2 SLP157 T02720206 10272 20194 53004

More Conditions Fewer Conditions

Pressure 30.00 in
Visibility 10.0 miles
Clouds Few 2100 ft
Heat Index 85 °F
Dew Point 70 °F
Humidity 67%
Rainfall 0.02 in
Snow Depth Not available.
UV 9 out of 12
Pollen 10.00 out of 12
Air Quality Not available.
Flu Activity Not available.
METAR KTOP 021753Z 00000KT 10SM FEW021 27/21 A3002 RMK AO2 SLP157 T02720206 10272 20194 53004

More Conditions Fewer Conditions

10-Day Weather Forecast

Almanac

Astronomy

Sep. 02, 2014 Rise Set
Actual Time 6:52 AM CDT 7:51 PM CDT
Civil Twilight 6:25 AM CDT 8:18 PM CDT
Nautical Twilight 5:52 AM CDT 8:51 PM CDT
Astronomical Twilight 5:18 AM CDT 9:24 PM CDT
Moon 2:34 PM CDT No Moon Set
Length of Visible Light 13h 53m
Length of Day
12h 59m
Tomorrow will be 2m 27s shorter.
First Quarter, 53% of the Moon is Illuminated
Today
First Quarter
Sep 8
Full
Sep 15
Last Quarter
Sep 24
New
Oct 1
First Quarter

Today's Extremes

State Highs State Lows

Community

WunderPhotos

Upload Photos

1,749,724 photos uploaded!

WunderBlogs® & News

Nearby

Snow Depth

Station Depth Elevation
No new snow has been reported.

Earthquake Activity

City Distance Mag. Time & Date
No recent earthquake activity has been reported nearby.
Minimum magnitude displayed is 2.5.

Coastal Water Temperatures

Place Temperature
No Stations Reporting

Nearby Weather Stations